Time;durP1;ratioP1;P1;durP2;ratioP2;P2;SDS_P1;SDS_P2;PMS_P1;PMS_P2;Temp;Humidity;BMP_temperature;BMP_pressure;BME280_temperature;BME280_humidity;BME280_pressure;Samples;Min_cycle;Max_cycle;Signal;HPM_P1;HPM_P2
2024/03/11 00:01:07;;;;;;;32.65;14.82;;;8.60;99.90;;;7.37;72.66;100085.09;4935301;28;20038;-82
2024/03/11 00:03:34;;;;;;;29.13;15.73;;;8.60;99.90;;;7.43;72.96;100091.81;4942181;28;20037;-81
2024/03/11 00:06:02;;;;;;;28.70;14.52;;;8.70;99.90;;;7.41;73.06;100091.91;4929712;28;20636;-82
2024/03/11 00:08:34;;;;;;;30.58;16.02;;;8.60;99.90;;;7.43;73.39;100099.66;4970499;28;20039;-81
2024/03/11 00:11:00;;;;;;;31.38;14.57;;;8.70;99.90;;;7.45;73.13;100084.72;4938457;28;22485;-81
2024/03/11 00:13:48;;;;;;;29.73;14.82;;;8.70;99.90;;;7.45;73.27;100084.72;4944218;28;20038;-82
2024/03/11 00:16:22;;;;;;;31.90;14.68;;;8.70;99.90;;;7.43;72.73;100090.06;4918786;28;20057;-83
2024/03/11 00:18:48;;;;;;;29.77;14.82;;;8.70;99.90;;;7.43;72.94;100092.69;4939056;28;20034;-81
2024/03/11 00:21:14;;;;;;;29.25;14.00;;;8.60;99.90;;;7.40;73.06;100082.31;4951299;28;20057;-81
2024/03/11 00:23:49;;;;;;;33.08;14.40;;;8.60;99.90;;;7.42;72.77;100090.97;4943540;28;20434;-81
2024/03/11 00:26:15;;;;;;;30.67;15.70;;;8.60;99.90;;;7.40;72.72;100091.03;4963496;28;20034;-81
2024/03/11 00:28:41;;;;;;;32.10;14.57;;;8.60;99.90;;;7.42;73.16;100093.59;4974417;28;20042;-82
2024/03/11 00:31:07;;;;;;;29.02;14.50;;;8.60;99.90;;;7.39;72.97;100088.50;4920090;28;20043;-81
2024/03/11 00:33:37;;;;;;;30.52;14.00;;;8.60;99.90;;;7.39;73.02;100083.25;4907673;28;20082;-81
2024/03/11 00:36:04;;;;;;;29.80;14.63;;;8.60;99.90;;;7.41;73.13;100089.28;4991761;28;20108;-81
2024/03/11 00:38:29;;;;;;;26.30;15.02;;;8.60;99.90;;;7.38;73.16;100079.75;4995295;28;20112;-80
2024/03/11 00:40:55;;;;;;;27.13;13.77;;;8.60;99.90;;;7.38;73.53;100089.38;5054664;28;20092;-81
2024/03/11 00:43:22;;;;;;;26.08;14.35;;;8.60;99.90;;;7.37;73.23;100085.94;5016570;28;20135;-81
2024/03/11 00:45:56;;;;;;;25.80;13.88;;;8.60;99.90;;;7.38;73.34;100090.25;5002485;28;20035;-80
2024/03/11 00:48:22;;;;;;;27.90;13.90;;;8.60;99.90;;;7.38;73.41;100089.38;4976854;28;20086;-81
2024/03/11 00:50:47;;;;;;;26.50;14.30;;;8.60;99.90;;;7.34;73.58;100083.47;4999547;28;20043;-81
2024/03/11 00:53:13;;;;;;;31.23;14.77;;;8.60;99.90;;;7.36;73.57;100091.22;5003083;28;20050;-80
2024/03/11 00:55:39;;;;;;;30.67;14.18;;;8.60;99.90;;;7.35;73.46;100086.91;5028512;28;20047;-81
2024/03/11 00:58:13;;;;;;;26.42;13.40;;;8.60;99.90;;;7.35;73.38;100092.16;5027732;28;20054;-82
2024/03/11 01:00:41;;;;;;;28.88;14.50;;;8.50;99.90;;;7.31;73.25;100086.19;5017132;28;20390;-80
2024/03/11 01:03:09;;;;;;;31.20;15.13;;;8.50;99.90;;;7.31;73.27;100080.94;5017806;27;20039;-81
2024/03/11 01:05:37;;;;;;;71.97;35.83;;;8.50;99.90;;;7.33;73.22;100080.91;5009938;28;20033;-81
2024/03/11 01:08:04;;;;;;;33.05;17.10;;;8.50;99.90;;;7.30;73.45;100087.13;4994086;28;20032;-81
2024/03/11 01:10:29;;;;;;;29.65;16.02;;;8.50;99.90;;;7.28;73.28;100078.47;5005956;28;20042;-80
2024/03/11 01:12:55;;;;;;;27.90;13.55;;;8.50;99.90;;;7.29;73.77;100079.31;5020792;28;20454;-81
2024/03/11 01:15:21;;;;;;;33.40;13.68;;;8.50;99.90;;;7.28;73.24;100078.47;5000843;28;20114;-81
2024/03/11 01:17:47;;;;;;;28.23;14.57;;;8.50;99.90;;;7.28;73.20;100082.84;4998485;28;20142;-81
2024/03/11 01:20:20;;;;;;;28.10;14.63;;;8.50;99.90;;;7.27;73.61;100081.16;5000997;28;20045;-81
2024/03/11 01:22:46;;;;;;;27.92;13.75;;;8.50;99.90;;;7.25;73.36;100085.59;5003969;28;20032;-82
2024/03/11 01:25:11;;;;;;;32.70;14.27;;;8.50;99.90;;;7.25;73.54;100083.00;4999762;28;20671;-80
2024/03/11 01:27:38;;;;;;;27.95;13.10;;;8.50;99.90;;;7.23;73.48;100085.66;4990692;28;20029;-82
2024/03/11 01:30:14;;;;;;;25.70;13.75;;;8.50;99.90;;;7.21;73.67;100086.66;5010131;28;20079;-82
2024/03/11 01:32:44;;;;;;;35.80;17.42;;;8.50;99.90;;;7.23;73.72;100082.19;5018373;28;20232;-80
2024/03/11 01:35:17;;;;;;;25.48;13.23;;;8.40;99.90;;;7.20;74.23;100083.19;4987451;28;20040;-80
2024/03/11 01:37:44;;;;;;;27.35;13.55;;;8.40;99.90;;;7.21;74.27;100077.03;4996828;28;20025;-81
2024/03/11 01:40:18;;;;;;;26.65;13.73;;;8.50;99.90;;;7.23;73.83;100074.34;5003951;28;21519;-81
2024/03/11 01:42:44;;;;;;;30.45;14.30;;;8.50;99.90;;;7.17;74.13;100067.59;4972372;28;20117;-81
2024/03/11 01:45:12;;;;;;;23.35;13.15;;;8.50;99.90;;;7.21;74.03;100069.16;4976997;28;20039;-81
2024/03/11 01:47:38;;;;;;;27.08;13.63;;;8.50;99.90;;;7.24;73.91;100068.22;4988841;28;20033;-81
2024/03/11 01:50:11;;;;;;;31.83;13.77;;;8.50;99.90;;;7.25;74.32;100072.50;5021560;28;20040;-81
2024/03/11 01:52:43;;;;;;;26.52;14.10;;;8.40;99.90;;;7.26;74.32;100074.22;4985123;28;20045;-81
2024/03/11 01:55:14;;;;;;;28.42;13.68;;;8.50;99.90;;;7.24;74.42;100066.44;4982563;28;20029;-80
2024/03/11 01:57:41;;;;;;;28.35;13.88;;;8.40;99.90;;;7.24;74.35;100071.66;4966588;28;20034;-81
2024/03/11 02:00:08;;;;;;;26.13;13.23;;;8.50;99.90;;;7.24;73.99;100061.19;4981385;28;20100;-80
2024/03/11 02:02:41;;;;;;;29.23;13.57;;;8.50;99.90;;;7.22;74.25;100063.03;4933533;28;21319;-81
2024/03/11 02:05:13;;;;;;;25.38;13.23;;;8.50;99.90;;;7.22;74.47;100056.94;4984082;28;20042;-81
2024/03/11 02:08:02;;;;;;;30.30;13.50;;;8.50;99.90;;;7.21;74.28;100061.31;4996137;28;20052;-81
2024/03/11 02:10:29;;;;;;;24.65;12.75;;;8.40;99.90;;;7.17;74.69;100050.16;4995193;28;20056;-80
2024/03/11 02:12:58;;;;;;;25.33;13.05;;;8.40;99.90;;;7.17;74.44;100047.53;5000760;28;20101;-81
2024/03/11 02:15:33;;;;;;;31.65;13.02;;;8.40;99.90;;;7.17;74.63;100050.16;4989883;28;20492;-82
2024/03/11 02:18:00;;;;;;;30.02;13.35;;;8.40;99.90;;;7.15;74.86;100048.50;5013205;28;20037;-80
2024/03/11 02:20:26;;;;;;;23.00;12.88;;;8.40;99.90;;;7.13;75.01;100039.88;5006018;28;20039;-80
2024/03/11 02:22:57;;;;;;;25.52;13.30;;;8.40;99.90;;;7.10;74.54;100038.22;5005335;28;20036;-81
2024/03/11 02:25:30;;;;;;;25.10;13.00;;;8.40;99.90;;;7.09;75.08;100030.44;5015631;28;20035;-81
2024/03/11 02:28:06;;;;;;;26.33;13.25;;;8.40;99.90;;;7.10;74.57;100032.97;5020158;28;20036;-81
2024/03/11 02:30:32;;;;;;;24.60;12.98;;;8.40;99.90;;;7.10;74.56;100038.22;5029553;28;20025;-80
2024/03/11 02:32:58;;;;;;;25.67;13.50;;;8.40;99.90;;;7.12;74.81;100032.91;5005775;28;20470;-81
2024/03/11 02:35:29;;;;;;;23.98;13.68;;;8.40;99.90;;;7.10;74.56;100034.75;5000268;28;20051;-81
2024/03/11 02:37:55;;;;;;;25.52;12.57;;;8.40;99.90;;;7.12;74.93;100033.75;5008781;28;20400;-81
2024/03/11 02:40:26;;;;;;;25.55;13.23;;;8.40;99.90;;;7.12;74.74;100035.53;5007118;28;20033;-81
2024/03/11 02:42:57;;;;;;;30.23;14.05;;;8.40;99.90;;;7.12;75.28;100038.16;5019525;28;20052;-81
2024/03/11 02:45:25;;;;;;;24.92;13.00;;;8.40;99.90;;;7.14;75.16;100042.41;4973513;28;20038;-80
2024/03/11 02:47:52;;;;;;;26.13;12.98;;;8.40;99.90;;;7.13;75.05;100045.09;5003997;28;20079;-80
2024/03/11 02:50:18;;;;;;;23.48;13.48;;;8.40;99.90;;;7.13;74.71;100045.09;5006326;28;20044;-81
2024/03/11 02:52:43;;;;;;;27.95;13.32;;;8.40;99.90;;;7.15;75.42;100038.03;4996056;28;20026;-80
2024/03/11 02:55:21;;;;;;;31.80;13.38;;;8.40;99.90;;;7.14;75.10;100039.78;4989326;28;20028;-81
2024/03/11 02:57:48;;;;;;;29.77;12.63;;;8.40;99.90;;;7.14;75.00;100028.47;4973908;28;20515;-81
2024/03/11 03:00:23;;;;;;;27.75;13.80;;;8.40;99.90;;;7.14;75.24;100034.53;5001616;28;20032;-81
2024/03/11 03:02:54;;;;;;;25.40;12.73;;;8.40;99.90;;;7.18;74.74;100033.50;5006881;28;20036;-81
2024/03/11 03:05:22;;;;;;;31.30;13.10;;;8.40;99.90;;;7.18;75.30;100028.25;5011599;28;20033;-80
2024/03/11 03:07:48;;;;;;;30.23;13.52;;;8.40;99.90;;;7.19;75.27;100029.09;4994005;28;20046;-81
2024/03/11 03:10:14;;;;;;;28.83;14.10;;;8.40;99.90;;;7.19;75.10;100021.25;5014170;28;20020;-81
2024/03/11 03:12:40;;;;;;;27.05;13.55;;;8.40;99.90;;;7.18;75.06;100023.03;4999774;28;20035;-80
2024/03/11 03:15:06;;;;;;;25.65;13.15;;;8.40;99.90;;;7.18;74.97;100016.94;5007644;28;20035;-81
2024/03/11 03:17:38;;;;;;;25.52;12.90;;;8.40;99.90;;;7.15;75.55;100015.31;4996110;28;20041;-80
2024/03/11 03:20:09;;;;;;;21.08;12.55;;;8.40;99.90;;;7.12;75.07;100015.44;5028101;28;20055;-82
2024/03/11 03:22:41;;;;;;;30.25;13.82;;;8.40;99.90;;;7.10;75.29;100017.25;5017044;28;20037;-81
2024/03/11 03:25:07;;;;;;;25.65;12.70;;;8.30;99.90;;;7.09;75.41;100009.50;5022125;28;20528;-81
2024/03/11 03:27:33;;;;;;;24.33;13.10;;;8.30;99.90;;;7.07;76.12;100016.56;5002679;28;20388;-80
2024/03/11 03:29:59;;;;;;;27.42;12.68;;;8.30;99.90;;;7.08;75.65;100015.63;5041497;28;20039;-81
2024/03/11 03:32:24;;;;;;;28.15;12.77;;;8.30;99.90;;;7.06;75.76;100004.38;4999911;28;20908;-82
2024/03/11 03:34:50;;;;;;;27.17;12.63;;;8.30;99.90;;;7.09;76.02;100012.97;4996083;28;20036;-80
2024/03/11 03:37:22;;;;;;;26.58;12.88;;;8.30;99.90;;;7.10;76.27;100011.19;4987331;28;20025;-81
2024/03/11 03:39:48;;;;;;;29.58;13.32;;;8.30;99.90;;;7.10;75.67;100022.50;5026635;28;20209;-81
2024/03/11 03:42:14;;;;;;;31.60;13.32;;;8.30;99.90;;;7.12;76.04;100023.28;5019936;28;20045;-81
2024/03/11 03:44:40;;;;;;;25.05;13.30;;;8.40;99.90;;;7.15;76.15;100027.56;5008042;28;20033;-82
2024/03/11 03:47:06;;;;;;;29.02;13.82;;;;;;;7.17;75.51;100023.97;4993836;28;20028;-81
2024/03/11 03:49:37;;;;;;;28.85;14.45;;;8.40;99.90;;;7.17;76.04;100013.47;5032799;28;20061;-80
2024/03/11 03:52:05;;;;;;;25.10;11.18;;;8.40;99.90;;;7.18;75.79;100019.56;5005625;28;20063;-81
2024/03/11 03:54:30;;;;;;;20.60;11.95;;;8.40;99.90;;;7.18;75.86;100015.16;5015632;28;20136;-81
2024/03/11 03:56:56;;;;;;;25.30;12.75;;;8.40;99.90;;;7.22;76.04;100015.06;5005122;28;20132;-81
2024/03/11 03:59:22;;;;;;;29.08;13.73;;;8.40;99.90;;;7.23;76.07;100014.13;4985593;28;20028;-80
2024/03/11 04:01:54;;;;;;;27.58;12.70;;;8.50;99.90;;;7.26;75.82;100007.00;4966230;28;20087;-81
2024/03/11 04:04:20;;;;;;;25.35;12.73;;;8.50;99.90;;;7.27;75.60;100013.06;4996302;28;20547;-82
2024/03/11 04:06:45;;;;;;;28.23;13.35;;;8.50;99.90;;;7.28;75.98;100005.16;4998721;28;20054;-81
2024/03/11 04:09:14;;;;;;;28.70;12.40;;;8.50;99.90;;;7.30;75.64;100012.91;5003500;28;20036;-81
2024/03/11 04:11:45;;;;;;;25.70;13.15;;;8.50;99.90;;;7.31;76.01;100010.25;5015061;28;20048;-80
2024/03/11 04:14:11;;;;;;;27.10;13.27;;;8.50;99.90;;;7.32;76.03;100009.34;5017466;28;20419;-81
2024/03/11 04:16:37;;;;;;;28.05;13.10;;;8.60;99.90;;;7.34;76.09;100010.13;5013203;28;20081;-80
2024/03/11 04:19:04;;;;;;;24.27;12.80;;;8.50;99.90;;;7.33;76.72;100012.81;4973583;28;20059;-81
2024/03/11 04:21:33;;;;;;;24.45;13.20;;;8.60;99.90;;;7.34;76.51;100009.25;5016875;27;20072;-81
2024/03/11 04:24:05;;;;;;;26.75;12.95;;;8.60;99.90;;;7.38;76.27;100013.44;4992955;28;20040;-81
2024/03/11 04:26:33;;;;;;;24.10;12.48;;;8.60;99.90;;;7.40;76.08;100003.75;5015525;28;20540;-81
2024/03/11 04:28:59;;;;;;;25.95;13.20;;;8.60;99.90;;;7.38;76.38;100010.81;5001661;28;20116;-81
2024/03/11 04:31:32;;;;;;;23.33;12.60;;;8.60;99.90;;;7.40;76.40;100003.75;4985888;28;20658;-81
2024/03/11 04:33:58;;;;;;;25.05;12.65;;;8.60;99.90;;;7.42;76.22;100017.63;4981543;28;20040;-81
2024/03/11 04:36:25;;;;;;;26.38;13.48;;;8.60;99.90;;;7.43;75.92;100008.00;4997374;28;20042;-82
2024/03/11 04:38:51;;;;;;;23.65;12.77;;;8.70;99.90;;;7.46;76.15;100007.88;5008307;28;20057;-81
2024/03/11 04:41:26;;;;;;;27.67;12.68;;;8.70;99.90;;;7.46;76.73;100013.09;4984971;28;20093;-82
2024/03/11 04:43:52;;;;;;;23.88;12.88;;;8.70;99.90;;;7.46;76.62;100016.56;4967852;28;20095;-80
2024/03/11 04:46:17;;;;;;;25.60;12.80;;;8.70;99.90;;;7.49;76.49;100016.41;4997507;28;20040;-81
2024/03/11 04:48:43;;;;;;;24.73;12.43;;;8.70;99.90;;;7.51;76.75;100011.97;5006891;28;20044;-81
2024/03/11 04:51:15;;;;;;;25.40;12.15;;;8.70;99.90;;;7.51;76.66;100013.75;5008665;28;20031;-82
2024/03/11 04:53:41;;;;;;;25.83;12.77;;;8.70;99.90;;;7.50;76.76;100012.06;4972083;28;20043;-81
2024/03/11 04:56:07;;;;;;;22.55;12.68;;;8.70;99.90;;;7.51;76.96;100009.34;4969968;28;20043;-81
2024/03/11 04:58:34;;;;;;;29.88;13.85;;;8.70;99.90;;;7.53;76.66;100004.88;5013895;28;20037;-81
2024/03/11 05:01:05;;;;;;;25.23;13.45;;;8.70;99.90;;;7.55;77.07;100010.06;5061468;28;20029;-80
2024/03/11 05:03:32;;;;;;;26.55;13.95;;;8.80;99.90;;;7.54;77.13;100003.97;5020669;28;20134;-80
2024/03/11 05:05:57;;;;;;;24.98;13.20;;;8.70;99.90;;;7.55;77.07;100017.91;5010870;28;20030;-82
2024/03/11 05:08:24;;;;;;;28.55;12.98;;;8.70;99.90;;;7.51;76.93;100004.09;5004109;28;20036;-81
2024/03/11 05:10:50;;;;;;;25.42;13.15;;;8.70;99.90;;;7.53;77.33;100004.88;5047507;28;20064;-81
2024/03/11 05:13:21;;;;;;;26.48;12.00;;;8.80;99.90;;;7.54;77.39;99998.75;4992900;28;20084;-82
2024/03/11 05:15:47;;;;;;;25.73;13.30;;;8.70;99.90;;;7.53;77.17;99994.41;4978618;28;20135;-82
2024/03/11 05:18:15;;;;;;;28.45;13.80;;;8.70;99.90;;;7.49;77.54;100000.69;5005372;28;20041;-80
2024/03/11 05:20:42;;;;;;;25.05;13.73;;;8.70;99.90;;;7.47;77.79;100010.41;4980299;28;20564;-80
2024/03/11 05:23:13;;;;;;;26.67;13.13;;;8.70;99.90;;;7.46;78.24;100000.84;4995633;28;20120;-81
2024/03/11 05:25:39;;;;;;;28.23;13.55;;;8.70;99.90;;;7.48;78.01;99996.41;4973230;28;20033;-80
2024/03/11 05:28:05;;;;;;;28.13;12.93;;;8.70;99.90;;;7.49;78.12;100005.94;4965745;28;20476;-81
2024/03/11 05:30:31;;;;;;;26.35;13.35;;;8.70;99.90;;;7.44;78.18;100007.94;4970623;28;20064;-80
2024/03/11 05:32:57;;;;;;;23.88;13.15;;;8.70;99.90;;;7.42;79.03;100004.53;4982289;28;20033;-80
2024/03/11 05:35:23;;;;;;;28.77;14.38;;;8.60;99.90;;;7.38;78.95;100002.97;4976642;28;20033;-80
2024/03/11 05:37:54;;;;;;;27.42;13.02;;;8.60;99.90;;;7.36;78.76;100003.06;4987016;28;20848;-81
2024/03/11 05:40:20;;;;;;;23.67;12.70;;;8.60;99.90;;;7.34;79.05;99996.16;4990179;28;20095;-80
2024/03/11 05:42:48;;;;;;;23.35;12.63;;;8.60;99.90;;;7.30;79.11;99998.09;5009277;28;20048;-81
2024/03/11 05:45:14;;;;;;;26.02;12.95;;;8.50;99.90;;;7.30;79.03;99999.84;4986255;28;20039;-81
2024/03/11 05:47:45;;;;;;;28.88;13.27;;;8.50;99.90;;;7.30;78.79;100002.44;5010341;28;20607;-81
2024/03/11 05:50:12;;;;;;;31.45;12.23;;;8.50;99.90;;;7.26;79.13;100004.38;4995516;28;20112;-81
2024/03/11 05:52:44;;;;;;;27.58;13.25;;;8.50;99.90;;;7.26;79.81;100009.59;4975853;28;20025;-81
2024/03/11 05:55:15;;;;;;;29.52;12.82;;;8.50;99.90;;;7.27;79.85;100023.53;4997011;28;20128;-81
2024/03/11 05:57:43;;;;;;;29.60;13.15;;;8.50;99.90;;;7.23;80.38;100021.97;4966863;28;20058;-81
2024/03/11 06:00:10;;;;;;;26.75;13.18;;;8.50;99.90;;;7.22;80.61;100021.13;5003916;28;20180;-81
2024/03/11 06:02:44;;;;;;;25.63;13.73;;;8.50;99.90;;;7.22;80.90;100023.75;5005096;28;20386;-81
2024/03/11 06:05:10;;;;;;;32.17;13.77;;;8.40;99.90;;;7.22;81.33;100028.16;5006262;28;20126;-80
2024/03/11 06:07:37;;;;;;;28.20;12.90;;;8.40;99.90;;;7.17;81.72;100034.44;5000722;28;20044;-82
2024/03/11 06:10:03;;;;;;;25.98;13.88;;;8.40;99.90;;;7.18;81.84;100037.88;5013224;28;20037;-81
2024/03/11 06:12:37;;;;;;;28.17;14.75;;;8.40;99.90;;;7.21;81.88;100042.13;4991936;28;20404;-82
2024/03/11 06:15:04;;;;;;;28.33;13.85;;;8.40;99.90;;;7.23;81.85;100042.94;5046721;28;20088;-81
2024/03/11 06:17:29;;;;;;;22.73;13.15;;;8.50;99.90;;;7.26;82.23;100048.03;4989235;28;20451;-80
2024/03/11 06:20:09;;;;;;;30.30;13.10;;;8.50;99.90;;;7.30;82.44;100054.81;4983566;28;20124;-82
2024/03/11 06:22:35;;;;;;;33.95;13.45;;;8.50;99.90;;;7.32;82.14;100058.22;5008126;28;20038;-81
2024/03/11 06:25:07;;;;;;;24.20;13.05;;;8.50;99.90;;;7.33;82.34;100052.94;4995018;28;20032;-81
2024/03/11 06:27:33;;;;;;;25.92;13.23;;;8.50;99.90;;;7.35;82.36;100056.34;5010953;28;20056;-80
2024/03/11 06:30:01;;;;;;;27.55;13.73;;;8.60;99.90;;;7.35;82.50;100053.72;5006826;28;20116;-81
2024/03/11 06:32:30;;;;;;;22.52;12.35;;;8.60;99.90;;;7.36;82.52;100054.56;5018816;28;21176;-83
2024/03/11 06:34:59;;;;;;;24.63;13.18;;;8.60;99.90;;;7.37;82.83;100058.91;4989604;28;20024;-81
2024/03/11 06:37:24;;;;;;;27.90;13.70;;;8.60;99.90;;;7.39;82.40;100057.06;4983829;28;20037;-81
2024/03/11 06:39:50;;;;;;;25.08;13.60;;;8.60;99.90;;;7.38;82.89;100061.44;5019225;28;20429;-81
2024/03/11 06:42:16;;;;;;;22.67;13.05;;;8.60;99.90;;;7.38;82.33;100069.28;4989211;28;20166;-81
2024/03/11 06:44:43;;;;;;;22.95;13.43;;;8.60;99.90;;;7.37;82.85;100069.38;5014595;28;20671;-81
2024/03/11 06:47:14;;;;;;;28.63;14.40;;;8.60;99.90;;;7.36;82.85;100067.66;4986293;28;20088;-82
2024/03/11 06:49:40;;;;;;;31.50;14.07;;;8.60;99.90;;;7.36;82.78;100073.78;5012186;28;20048;-80
2024/03/11 06:52:07;;;;;;;28.40;13.85;;;8.50;99.90;;;7.35;82.59;100074.66;4999176;28;20051;-81
2024/03/11 06:54:33;;;;;;;23.92;13.20;;;8.60;99.90;;;7.34;82.46;100072.97;4996030;28;20040;-81
2024/03/11 06:57:00;;;;;;;28.38;12.90;;;8.50;99.90;;;7.33;82.58;100073.88;5008577;28;20413;-81
2024/03/11 06:59:51;;;;;;;;;;;;;;;;;;;;;
2024/03/11 07:02:20;;;;;;;27.00;13.25;;;8.50;99.90;;;7.33;82.80;100080.91;4993372;28;21317;-81
2024/03/11 07:04:56;;;;;;;23.80;13.35;;;8.50;99.90;;;7.31;83.01;100080.09;4970812;28;20546;-81
2024/03/11 07:07:22;;;;;;;29.92;14.07;;;8.50;99.90;;;7.30;83.54;100081.00;4978578;28;20032;-81
2024/03/11 07:09:53;;;;;;;28.48;14.75;;;8.50;99.90;;;7.31;84.45;100080.09;5003105;28;20033;-81
2024/03/11 07:12:20;;;;;;;30.08;14.38;;;8.50;99.90;;;7.30;84.79;100076.66;5011382;28;20486;-81
2024/03/11 07:14:46;;;;;;;28.30;14.60;;;8.50;99.90;;;7.30;85.24;100081.88;5000080;28;20044;-81
2024/03/11 07:17:12;;;;;;;28.23;14.38;;;8.50;99.90;;;7.27;85.04;100076.75;4977473;28;20598;-81
2024/03/11 07:19:38;;;;;;;22.60;13.05;;;8.50;99.90;;;7.30;85.09;100081.00;4993537;28;20021;-80
2024/03/11 07:22:09;;;;;;;27.17;14.27;;;8.50;99.90;;;7.31;85.31;100080.94;4979580;28;20126;-81
2024/03/11 07:24:37;;;;;;;28.08;14.50;;;8.50;99.90;;;7.33;86.20;100086.13;5008496;28;20524;-81
2024/03/11 07:27:04;;;;;;;27.70;14.85;;;8.50;99.90;;;7.32;85.84;100082.69;5032014;28;20033;-80
2024/03/11 07:29:29;;;;;;;28.50;14.48;;;8.50;99.90;;;7.31;85.87;100078.34;5020160;28;20531;-81
2024/03/11 07:31:55;;;;;;;26.52;14.80;;;8.50;99.90;;;7.31;85.80;100073.09;5025529;28;20036;-81
2024/03/11 07:34:31;;;;;;;26.83;14.05;;;8.50;99.90;;;7.34;85.84;100069.50;5011482;28;20041;-80
2024/03/11 07:36:56;;;;;;;28.60;14.30;;;8.50;99.90;;;7.33;85.58;100070.41;4990456;28;20101;-81
2024/03/11 07:39:24;;;;;;;30.48;14.70;;;8.50;99.90;;;7.34;86.01;100069.50;5015441;28;20443;-81
2024/03/11 07:41:55;;;;;;;28.50;14.85;;;8.60;99.90;;;7.37;85.61;100077.22;4971765;28;20040;-81
2024/03/11 07:44:20;;;;;;;27.95;15.80;;;8.60;99.90;;;7.37;85.75;100077.22;4985372;28;20600;-81
2024/03/11 07:46:46;;;;;;;28.40;14.63;;;8.60;99.90;;;7.39;85.87;100075.41;5003857;28;20049;-81
2024/03/11 07:49:12;;;;;;;29.42;16.42;;;8.60;99.90;;;7.41;85.84;100084.03;5020246;28;20236;-80
2024/03/11 07:51:38;;;;;;;27.67;14.75;;;8.60;99.90;;;7.43;85.74;100073.47;5003010;28;20043;-81
2024/03/11 07:54:11;;;;;;;32.35;14.48;;;8.60;99.90;;;7.48;85.79;100087.25;4972058;28;20116;-81
2024/03/11 07:56:38;;;;;;;26.83;13.70;;;8.70;99.90;;;7.50;85.73;100081.00;4979385;28;20037;-81
2024/03/11 07:59:07;;;;;;;25.33;13.93;;;8.70;99.90;;;7.50;85.77;100086.25;4965167;28;20046;-80
2024/03/11 08:01:38;;;;;;;25.92;14.23;;;8.70;99.90;;;7.53;85.59;100090.50;4969760;28;20585;-80
2024/03/11 08:04:03;;;;;;;25.27;14.32;;;8.80;99.90;;;7.60;85.34;100094.53;4978468;28;20038;-80
2024/03/11 08:06:30;;;;;;;26.95;13.85;;;8.80;99.90;;;7.63;85.55;100094.41;4956313;28;20143;-81
2024/03/11 08:08:56;;;;;;;31.02;15.07;;;8.80;99.90;;;7.68;85.51;100102.06;4968684;28;20037;-81
2024/03/11 08:11:22;;;;;;;26.30;13.60;;;8.90;99.90;;;7.69;84.76;100109.88;4971581;28;21581;-82
2024/03/11 08:13:56;;;;;;;24.00;13.90;;;8.90;99.90;;;7.70;84.90;100111.56;4994862;28;20040;-82
2024/03/11 08:16:22;;;;;;;25.02;13.48;;;8.90;99.90;;;7.73;84.52;100113.19;4988065;28;20044;-81
2024/03/11 08:18:48;;;;;;;28.90;14.32;;;8.90;99.90;;;7.74;84.09;100107.03;5007244;28;20048;-82
2024/03/11 08:21:14;;;;;;;28.35;13.95;;;8.90;99.90;;;7.70;84.65;100111.56;4977129;28;20071;-81
2024/03/11 08:23:48;;;;;;;26.00;14.02;;;8.90;99.90;;;7.68;83.90;100115.16;4969644;28;20078;-81
2024/03/11 08:26:17;;;;;;;27.83;14.70;;;8.90;99.90;;;7.65;83.95;100117.94;4978427;28;20028;-81
2024/03/11 08:28:43;;;;;;;27.55;14.77;;;8.90;99.90;;;7.68;83.95;100117.78;4984702;28;20037;-81
2024/03/11 08:31:17;;;;;;;28.77;13.80;;;8.90;99.90;;;7.71;83.33;100122.88;4990110;28;20036;-81
2024/03/11 08:33:43;;;;;;;29.58;14.50;;;8.90;99.90;;;7.72;83.13;100120.19;5001230;28;20152;-81
2024/03/11 08:36:09;;;;;;;26.70;14.68;;;8.90;99.90;;;7.75;83.51;100119.22;5013485;28;20044;-84
2024/03/11 08:38:35;;;;;;;26.20;14.32;;;8.90;99.90;;;7.73;82.97;100127.16;5008272;28;20427;-81
2024/03/11 08:41:11;;;;;;;28.45;14.60;;;9.00;99.90;;;7.75;83.24;100124.44;5005526;28;20040;-80
2024/03/11 08:43:38;;;;;;;26.02;13.80;;;8.90;99.90;;;7.71;83.25;100125.50;4963198;28;20040;-81
2024/03/11 08:46:11;;;;;;;27.08;13.07;;;8.90;99.90;;;7.71;83.28;100138.59;4940444;28;20152;-82
2024/03/11 08:48:38;;;;;;;29.10;14.13;;;8.90;99.90;;;7.66;83.11;100127.50;5010232;28;20128;-81
2024/03/11 08:51:04;;;;;;;23.33;13.85;;;8.90;99.90;;;7.69;83.41;100132.59;4967236;28;20053;-81
2024/03/11 08:53:30;;;;;;;25.27;14.50;;;8.90;99.90;;;7.70;83.15;100129.06;4985581;28;20503;-81
2024/03/11 08:56:03;;;;;;;26.42;14.35;;;8.90;99.90;;;7.73;83.76;100129.78;4971667;28;20128;-81
2024/03/11 08:58:30;;;;;;;28.92;14.25;;;8.90;99.90;;;7.70;83.16;100135.13;4995411;28;20040;-82
2024/03/11 09:01:01;;;;;;;21.05;11.75;;;8.90;99.90;;;7.67;82.78;100129.22;4990876;28;20041;-81
2024/03/11 09:03:29;;;;;;;24.63;14.05;;;8.90;99.90;;;7.69;83.23;100140.44;5011632;28;20037;-81
2024/03/11 09:05:59;;;;;;;25.60;14.73;;;8.90;99.90;;;7.71;83.05;100133.38;4985064;23;20037;-81
2024/03/11 09:08:35;;;;;;;26.35;14.60;;;8.90;99.90;;;7.72;82.96;100141.16;4997518;28;20056;-81
2024/03/11 09:11:02;;;;;;;28.77;16.25;;;8.90;99.90;;;7.73;83.42;100131.53;4975184;28;20152;-81
2024/03/11 09:13:31;;;;;;;30.70;16.05;;;8.90;99.90;;;7.70;83.42;100134.28;4985132;28;20041;-81
2024/03/11 09:16:08;;;;;;;27.73;14.75;;;8.90;99.90;;;7.69;83.45;100136.06;4997158;28;20520;-81
2024/03/11 09:18:34;;;;;;;27.85;15.95;;;8.90;99.90;;;7.67;83.53;100137.91;4983403;28;20112;-81
2024/03/11 09:21:08;;;;;;;28.48;15.07;;;8.90;99.90;;;7.71;83.36;100136.84;4988696;28;20075;-81
2024/03/11 09:23:37;;;;;;;27.35;15.82;;;8.90;99.90;;;7.75;83.48;100132.31;4999102;28;20037;-82
2024/03/11 09:26:13;;;;;;;28.38;15.45;;;9.00;99.90;;;7.75;83.18;100138.44;5011041;28;20056;-81
2024/03/11 09:28:40;;;;;;;27.98;16.10;;;9.00;99.90;;;7.78;83.12;100137.44;5005382;28;20074;-81
2024/03/11 09:31:06;;;;;;;30.75;15.18;;;9.00;99.90;;;7.81;83.35;100142.53;4995938;28;20044;-81
2024/03/11 09:33:41;;;;;;;31.70;16.00;;;9.00;99.90;;;7.83;83.52;100142.47;4976240;28;20043;-81
2024/03/11 09:36:08;;;;;;;31.73;15.88;;;9.00;99.90;;;7.85;83.04;100148.50;4984254;28;20037;-81
2024/03/11 09:38:35;;;;;;;34.35;17.20;;;9.10;99.90;;;7.85;83.09;100154.59;4995034;28;20060;-81
2024/03/11 09:41:14;;;;;;;28.90;16.08;;;9.10;99.90;;;7.84;82.79;100158.13;5010823;28;20033;-81
2024/03/11 09:43:48;;;;;;;28.73;15.45;;;9.00;99.90;;;7.83;83.23;100168.69;5003322;28;20086;-81
2024/03/11 09:46:28;;;;;;;25.85;15.45;;;9.00;99.90;;;7.79;83.04;100165.34;4999158;28;20067;-82
2024/03/11 09:48:54;;;;;;;31.45;15.93;;;9.00;99.90;;;7.75;82.98;100163.75;4999881;28;20032;-81
2024/03/11 09:51:30;;;;;;;27.25;15.25;;;9.00;99.90;;;7.78;83.31;100166.28;5011967;28;20040;-81
2024/03/11 09:53:59;;;;;;;29.98;16.67;;;9.00;99.90;;;7.78;83.80;100172.34;5037905;28;20021;-82
2024/03/11 09:56:26;;;;;;;31.20;16.25;;;;;;;7.79;83.83;100168.78;5001100;28;20127;-82
2024/03/11 09:59:04;;;;;;;33.90;15.57;;;9.00;99.90;;;7.81;83.37;100184.47;5017162;28;20060;-81
2024/03/11 10:01:42;;;;;;;32.90;16.52;;;9.00;99.90;;;7.82;83.20;100180.94;5013934;28;20044;-82
2024/03/11 10:04:21;;;;;;;23.27;8.60;;;9.00;99.90;;;7.78;83.67;100192.47;5011023;28;20589;-83
2024/03/11 10:07:05;;;;;;;31.58;16.30;;;9.00;99.90;;;7.80;83.70;100185.41;5024557;28;20155;-82
2024/03/11 10:09:53;;;;;;;29.67;15.63;;;9.00;99.90;;;7.80;83.59;100193.25;5020131;28;20163;-81
2024/03/11 10:12:21;;;;;;;31.10;16.67;;;9.00;99.90;;;7.80;83.50;100190.63;5043724;28;20030;-83
2024/03/11 10:14:50;;;;;;;30.30;16.80;;;9.00;99.90;;;7.82;83.79;100188.81;5015259;28;20124;-82
2024/03/11 10:17:32;;;;;;;30.40;17.00;;;9.00;99.90;;;7.82;83.40;100180.94;5003782;28;20046;-83
2024/03/11 10:20:13;;;;;;;32.33;17.00;;;9.00;99.90;;;7.85;83.47;100190.44;5005893;28;20071;-83
2024/03/11 10:22:47;;;;;;;32.53;17.83;;;9.10;99.90;;;7.88;83.14;100188.50;5002580;28;20029;-82